sensor_id;sensor_type;location;lat;lon;timestamp;temperature;humidity
8862;DHT22;4799;50.996;4.754;2022-12-05T00:03:46;2.70;99.90
8862;DHT22;4799;50.996;4.754;2022-12-05T00:06:12;2.70;99.90
8862;DHT22;4799;50.996;4.754;2022-12-05T00:08:38;2.70;99.90
8862;DHT22;4799;50.996;4.754;2022-12-05T00:11:10;2.70;99.90
8862;DHT22;4799;50.996;4.754;2022-12-05T00:13:37;2.70;99.90
8862;DHT22;4799;50.996;4.754;2022-12-05T00:16:10;2.70;99.90
8862;DHT22;4799;50.996;4.754;2022-12-05T00:18:36;2.70;99.90
8862;DHT22;4799;50.996;4.754;2022-12-05T00:21:03;2.70;99.90
8862;DHT22;4799;50.996;4.754;2022-12-05T00:23:29;2.70;99.90
8862;DHT22;4799;50.996;4.754;2022-12-05T00:25:54;2.70;99.90
8862;DHT22;4799;50.996;4.754;2022-12-05T00:28:20;2.80;99.90
8862;DHT22;4799;50.996;4.754;2022-12-05T00:30:46;2.80;99.90
8862;DHT22;4799;50.996;4.754;2022-12-05T00:33:11;2.80;99.90
8862;DHT22;4799;50.996;4.754;2022-12-05T00:35:38;2.70;99.90
8862;DHT22;4799;50.996;4.754;2022-12-05T00:38:04;2.80;99.90
8862;DHT22;4799;50.996;4.754;2022-12-05T00:40:29;2.70;99.90
8862;DHT22;4799;50.996;4.754;2022-12-05T00:42:55;2.80;99.90
8862;DHT22;4799;50.996;4.754;2022-12-05T00:45:21;2.80;99.90
8862;DHT22;4799;50.996;4.754;2022-12-05T00:47:47;2.80;99.90
8862;DHT22;4799;50.996;4.754;2022-12-05T00:50:12;2.80;99.90
8862;DHT22;4799;50.996;4.754;2022-12-05T00:52:38;2.80;99.90
8862;DHT22;4799;50.996;4.754;2022-12-05T00:55:04;2.80;99.90
8862;DHT22;4799;50.996;4.754;2022-12-05T00:57:31;2.80;99.90
8862;DHT22;4799;50.996;4.754;2022-12-05T00:59:56;2.80;99.90
8862;DHT22;4799;50.996;4.754;2022-12-05T01:02:22;2.80;99.90
8862;DHT22;4799;50.996;4.754;2022-12-05T01:04:48;2.80;99.90
8862;DHT22;4799;50.996;4.754;2022-12-05T01:07:13;2.80;99.90
8862;DHT22;4799;50.996;4.754;2022-12-05T01:09:39;2.80;99.90
8862;DHT22;4799;50.996;4.754;2022-12-05T01:12:05;2.80;99.90
8862;DHT22;4799;50.996;4.754;2022-12-05T01:14:31;2.80;99.90
8862;DHT22;4799;50.996;4.754;2022-12-05T01:16:56;2.80;99.90
8862;DHT22;4799;50.996;4.754;2022-12-05T01:19:26;2.80;99.90
8862;DHT22;4799;50.996;4.754;2022-12-05T01:21:53;2.80;99.90
8862;DHT22;4799;50.996;4.754;2022-12-05T01:24:20;2.80;99.90
8862;DHT22;4799;50.996;4.754;2022-12-05T01:26:46;2.80;99.90
8862;DHT22;4799;50.996;4.754;2022-12-05T01:29:14;2.80;99.90
8862;DHT22;4799;50.996;4.754;2022-12-05T01:31:41;2.80;99.90
8862;DHT22;4799;50.996;4.754;2022-12-05T01:34:10;2.80;99.90
8862;DHT22;4799;50.996;4.754;2022-12-05T01:36:36;2.80;99.90
8862;DHT22;4799;50.996;4.754;2022-12-05T01:39:04;2.80;99.90
8862;DHT22;4799;50.996;4.754;2022-12-05T01:41:33;2.80;99.90
8862;DHT22;4799;50.996;4.754;2022-12-05T01:46:35;2.90;99.90
8862;DHT22;4799;50.996;4.754;2022-12-05T01:49:10;2.90;99.90
8862;DHT22;4799;50.996;4.754;2022-12-05T01:51:38;2.90;99.90
8862;DHT22;4799;50.996;4.754;2022-12-05T01:54:05;2.90;99.90
8862;DHT22;4799;50.996;4.754;2022-12-05T01:56:32;2.90;99.90
8862;DHT22;4799;50.996;4.754;2022-12-05T01:59:01;2.90;99.90
8862;DHT22;4799;50.996;4.754;2022-12-05T02:01:27;2.90;99.90
8862;DHT22;4799;50.996;4.754;2022-12-05T02:03:56;2.90;99.90
8862;DHT22;4799;50.996;4.754;2022-12-05T02:06:23;2.90;99.90
8862;DHT22;4799;50.996;4.754;2022-12-05T02:08:51;2.90;99.90
8862;DHT22;4799;50.996;4.754;2022-12-05T02:11:18;2.90;99.90
8862;DHT22;4799;50.996;4.754;2022-12-05T02:22:31;2.90;99.90
8862;DHT22;4799;50.996;4.754;2022-12-05T02:30:24;2.90;99.90
8862;DHT22;4799;50.996;4.754;2022-12-05T02:41:05;2.90;99.90
8862;DHT22;4799;50.996;4.754;2022-12-05T02:43:39;2.90;99.90
8862;DHT22;4799;50.996;4.754;2022-12-05T02:46:11;2.90;99.90
8862;DHT22;4799;50.996;4.754;2022-12-05T02:48:39;2.90;99.90
8862;DHT22;4799;50.996;4.754;2022-12-05T02:51:08;2.90;99.90
8862;DHT22;4799;50.996;4.754;2022-12-05T02:53:37;2.90;99.90
8862;DHT22;4799;50.996;4.754;2022-12-05T02:56:03;2.90;99.90
8862;DHT22;4799;50.996;4.754;2022-12-05T02:58:33;2.90;99.90
8862;DHT22;4799;50.996;4.754;2022-12-05T03:01:01;2.90;99.90
8862;DHT22;4799;50.996;4.754;2022-12-05T03:03:28;2.90;99.90
8862;DHT22;4799;50.996;4.754;2022-12-05T03:06:02;2.90;99.90
8862;DHT22;4799;50.996;4.754;2022-12-05T03:08:39;2.90;99.90
8862;DHT22;4799;50.996;4.754;2022-12-05T03:11:07;2.90;99.90
8862;DHT22;4799;50.996;4.754;2022-12-05T03:13:55;2.90;99.90
8862;DHT22;4799;50.996;4.754;2022-12-05T03:16:30;2.90;99.90
8862;DHT22;4799;50.996;4.754;2022-12-05T03:19:04;2.90;99.90
8862;DHT22;4799;50.996;4.754;2022-12-05T03:21:51;2.80;99.90
8862;DHT22;4799;50.996;4.754;2022-12-05T03:24:18;2.80;99.90
8862;DHT22;4799;50.996;4.754;2022-12-05T03:29:55;2.80;99.90
8862;DHT22;4799;50.996;4.754;2022-12-05T03:32:49;2.80;99.90
8862;DHT22;4799;50.996;4.754;2022-12-05T03:35:39;2.80;99.90
8862;DHT22;4799;50.996;4.754;2022-12-05T03:38:13;2.80;99.90
8862;DHT22;4799;50.996;4.754;2022-12-05T03:43:43;2.80;99.90
8862;DHT22;4799;50.996;4.754;2022-12-05T03:49:19;2.80;99.90
8862;DHT22;4799;50.996;4.754;2022-12-05T03:51:54;2.80;99.90
8862;DHT22;4799;50.996;4.754;2022-12-05T03:54:48;2.80;99.90
8862;DHT22;4799;50.996;4.754;2022-12-05T03:57:47;2.80;99.90
8862;DHT22;4799;50.996;4.754;2022-12-05T04:00:16;2.80;99.90
8862;DHT22;4799;50.996;4.754;2022-12-05T04:05:39;2.80;99.90
8862;DHT22;4799;50.996;4.754;2022-12-05T04:08:12;2.80;99.90
8862;DHT22;4799;50.996;4.754;2022-12-05T04:10:40;2.80;99.90
8862;DHT22;4799;50.996;4.754;2022-12-05T04:13:53;2.80;99.90
8862;DHT22;4799;50.996;4.754;2022-12-05T04:16:28;2.80;99.90
8862;DHT22;4799;50.996;4.754;2022-12-05T04:19:20;2.80;99.90
8862;DHT22;4799;50.996;4.754;2022-12-05T04:21:52;2.80;99.90
8862;DHT22;4799;50.996;4.754;2022-12-05T04:24:28;2.90;99.90
8862;DHT22;4799;50.996;4.754;2022-12-05T04:27:35;2.90;99.90
8862;DHT22;4799;50.996;4.754;2022-12-05T04:30:07;2.90;99.90
8862;DHT22;4799;50.996;4.754;2022-12-05T04:32:45;2.80;99.90
8862;DHT22;4799;50.996;4.754;2022-12-05T04:35:24;2.90;99.90
8862;DHT22;4799;50.996;4.754;2022-12-05T04:37:52;2.90;99.90
8862;DHT22;4799;50.996;4.754;2022-12-05T04:40:37;2.90;99.90
8862;DHT22;4799;50.996;4.754;2022-12-05T04:43:05;2.90;99.90
8862;DHT22;4799;50.996;4.754;2022-12-05T04:45:34;2.90;99.90
8862;DHT22;4799;50.996;4.754;2022-12-05T04:48:05;2.90;99.90
8862;DHT22;4799;50.996;4.754;2022-12-05T04:50:35;2.90;99.90
8862;DHT22;4799;50.996;4.754;2022-12-05T04:53:03;2.90;99.90
8862;DHT22;4799;50.996;4.754;2022-12-05T04:55:31;2.90;99.90
8862;DHT22;4799;50.996;4.754;2022-12-05T04:58:10;3.00;99.90
8862;DHT22;4799;50.996;4.754;2022-12-05T05:00:50;3.00;99.90
8862;DHT22;4799;50.996;4.754;2022-12-05T05:05:57;3.00;99.90
8862;DHT22;4799;50.996;4.754;2022-12-05T05:08:25;3.00;99.90
8862;DHT22;4799;50.996;4.754;2022-12-05T05:11:13;3.00;99.90
8862;DHT22;4799;50.996;4.754;2022-12-05T05:13:40;3.00;99.90
8862;DHT22;4799;50.996;4.754;2022-12-05T05:16:06;3.00;99.90
8862;DHT22;4799;50.996;4.754;2022-12-05T05:18:32;3.00;99.90
8862;DHT22;4799;50.996;4.754;2022-12-05T05:20:58;3.00;99.90
8862;DHT22;4799;50.996;4.754;2022-12-05T05:23:24;3.00;99.90
8862;DHT22;4799;50.996;4.754;2022-12-05T05:25:54;3.00;99.90
8862;DHT22;4799;50.996;4.754;2022-12-05T05:28:21;3.00;99.90
8862;DHT22;4799;50.996;4.754;2022-12-05T05:30:47;3.00;99.90
8862;DHT22;4799;50.996;4.754;2022-12-05T05:33:13;3.00;99.90
8862;DHT22;4799;50.996;4.754;2022-12-05T05:35:39;3.00;99.90
8862;DHT22;4799;50.996;4.754;2022-12-05T05:38:05;3.00;99.90
8862;DHT22;4799;50.996;4.754;2022-12-05T05:40:34;3.00;99.90
8862;DHT22;4799;50.996;4.754;2022-12-05T05:43:00;3.10;99.90
8862;DHT22;4799;50.996;4.754;2022-12-05T05:45:25;3.10;99.90
8862;DHT22;4799;50.996;4.754;2022-12-05T05:47:51;3.10;99.90
8862;DHT22;4799;50.996;4.754;2022-12-05T05:50:17;3.10;99.90
8862;DHT22;4799;50.996;4.754;2022-12-05T05:52:43;3.10;99.90
8862;DHT22;4799;50.996;4.754;2022-12-05T05:55:09;3.10;99.90
8862;DHT22;4799;50.996;4.754;2022-12-05T05:57:35;3.10;99.90
8862;DHT22;4799;50.996;4.754;2022-12-05T06:00:04;3.10;99.90
8862;DHT22;4799;50.996;4.754;2022-12-05T06:02:32;3.10;99.90
8862;DHT22;4799;50.996;4.754;2022-12-05T06:04:58;3.10;99.90
8862;DHT22;4799;50.996;4.754;2022-12-05T06:07:24;3.10;99.90
8862;DHT22;4799;50.996;4.754;2022-12-05T06:09:49;3.20;99.90
8862;DHT22;4799;50.996;4.754;2022-12-05T06:12:16;3.10;99.90
8862;DHT22;4799;50.996;4.754;2022-12-05T06:14:41;3.20;99.90
8862;DHT22;4799;50.996;4.754;2022-12-05T06:17:07;3.20;99.90
8862;DHT22;4799;50.996;4.754;2022-12-05T06:19:33;3.20;99.90
8862;DHT22;4799;50.996;4.754;2022-12-05T06:21:58;3.20;99.90
8862;DHT22;4799;50.996;4.754;2022-12-05T06:24:24;3.20;99.90
8862;DHT22;4799;50.996;4.754;2022-12-05T06:26:50;3.20;99.90
8862;DHT22;4799;50.996;4.754;2022-12-05T06:29:16;3.20;99.90
8862;DHT22;4799;50.996;4.754;2022-12-05T06:31:41;3.20;99.90
8862;DHT22;4799;50.996;4.754;2022-12-05T06:34:07;3.20;99.90
8862;DHT22;4799;50.996;4.754;2022-12-05T06:36:33;3.30;99.90
8862;DHT22;4799;50.996;4.754;2022-12-05T06:38:59;3.30;99.90
8862;DHT22;4799;50.996;4.754;2022-12-05T06:41:26;3.30;99.90
8862;DHT22;4799;50.996;4.754;2022-12-05T06:43:53;3.30;99.90
8862;DHT22;4799;50.996;4.754;2022-12-05T06:46:20;3.30;99.90
8862;DHT22;4799;50.996;4.754;2022-12-05T06:48:46;3.30;99.90
8862;DHT22;4799;50.996;4.754;2022-12-05T06:51:14;3.30;99.90
8862;DHT22;4799;50.996;4.754;2022-12-05T06:53:41;3.30;99.90
8862;DHT22;4799;50.996;4.754;2022-12-05T06:56:11;3.30;99.90
8862;DHT22;4799;50.996;4.754;2022-12-05T06:58:38;3.30;99.90
8862;DHT22;4799;50.996;4.754;2022-12-05T07:01:04;3.30;99.90
8862;DHT22;4799;50.996;4.754;2022-12-05T07:03:49;3.30;99.90
8862;DHT22;4799;50.996;4.754;2022-12-05T07:06:16;3.30;99.90
8862;DHT22;4799;50.996;4.754;2022-12-05T07:08:41;3.30;99.90
8862;DHT22;4799;50.996;4.754;2022-12-05T07:11:07;3.30;99.90
8862;DHT22;4799;50.996;4.754;2022-12-05T07:13:33;3.30;99.90
8862;DHT22;4799;50.996;4.754;2022-12-05T07:15:59;3.30;99.90
8862;DHT22;4799;50.996;4.754;2022-12-05T07:18:25;3.30;99.90
8862;DHT22;4799;50.996;4.754;2022-12-05T07:20:59;3.30;99.90
8862;DHT22;4799;50.996;4.754;2022-12-05T07:23:25;3.30;99.90
8862;DHT22;4799;50.996;4.754;2022-12-05T07:25:51;3.30;99.90
8862;DHT22;4799;50.996;4.754;2022-12-05T07:28:17;3.30;99.90
8862;DHT22;4799;50.996;4.754;2022-12-05T07:30:43;3.30;99.90
8862;DHT22;4799;50.996;4.754;2022-12-05T07:33:09;3.30;99.90
8862;DHT22;4799;50.996;4.754;2022-12-05T07:35:35;3.30;99.90
8862;DHT22;4799;50.996;4.754;2022-12-05T07:38:00;3.30;99.90
8862;DHT22;4799;50.996;4.754;2022-12-05T07:40:26;3.30;99.90
8862;DHT22;4799;50.996;4.754;2022-12-05T07:42:52;3.30;99.90
8862;DHT22;4799;50.996;4.754;2022-12-05T07:45:19;3.30;99.90
8862;DHT22;4799;50.996;4.754;2022-12-05T07:47:45;3.30;99.90
8862;DHT22;4799;50.996;4.754;2022-12-05T07:50:11;3.40;99.90
8862;DHT22;4799;50.996;4.754;2022-12-05T07:52:38;3.30;99.90
8862;DHT22;4799;50.996;4.754;2022-12-05T07:55:04;3.40;99.90
8862;DHT22;4799;50.996;4.754;2022-12-05T07:57:30;3.40;99.90
8862;DHT22;4799;50.996;4.754;2022-12-05T07:59:56;3.40;99.90
8862;DHT22;4799;50.996;4.754;2022-12-05T08:02:22;3.40;99.90
8862;DHT22;4799;50.996;4.754;2022-12-05T08:04:48;3.40;99.90
8862;DHT22;4799;50.996;4.754;2022-12-05T08:07:14;3.40;99.90
8862;DHT22;4799;50.996;4.754;2022-12-05T08:09:39;3.40;99.90
8862;DHT22;4799;50.996;4.754;2022-12-05T08:12:05;3.40;99.90
8862;DHT22;4799;50.996;4.754;2022-12-05T08:14:31;3.50;99.90
8862;DHT22;4799;50.996;4.754;2022-12-05T08:16:57;3.50;99.90
8862;DHT22;4799;50.996;4.754;2022-12-05T08:19:23;3.50;99.90
8862;DHT22;4799;50.996;4.754;2022-12-05T08:21:48;3.50;99.90
8862;DHT22;4799;50.996;4.754;2022-12-05T08:24:15;3.50;99.90
8862;DHT22;4799;50.996;4.754;2022-12-05T08:26:41;3.50;99.90
8862;DHT22;4799;50.996;4.754;2022-12-05T08:29:10;3.60;99.90
8862;DHT22;4799;50.996;4.754;2022-12-05T08:31:43;3.60;99.90
8862;DHT22;4799;50.996;4.754;2022-12-05T08:34:12;3.60;99.90
8862;DHT22;4799;50.996;4.754;2022-12-05T08:36:38;3.70;99.90
8862;DHT22;4799;50.996;4.754;2022-12-05T08:39:06;3.70;99.90
8862;DHT22;4799;50.996;4.754;2022-12-05T08:41:33;3.70;99.90
8862;DHT22;4799;50.996;4.754;2022-12-05T08:44:04;3.70;99.90
8862;DHT22;4799;50.996;4.754;2022-12-05T08:46:35;3.80;99.90
8862;DHT22;4799;50.996;4.754;2022-12-05T08:49:03;3.80;99.90
8862;DHT22;4799;50.996;4.754;2022-12-05T08:51:29;3.80;99.90
8862;DHT22;4799;50.996;4.754;2022-12-05T08:53:54;3.90;99.90
8862;DHT22;4799;50.996;4.754;2022-12-05T08:56:23;4.00;99.90
8862;DHT22;4799;50.996;4.754;2022-12-05T08:58:49;4.10;99.90
8862;DHT22;4799;50.996;4.754;2022-12-05T09:01:17;4.10;99.90
8862;DHT22;4799;50.996;4.754;2022-12-05T09:03:44;4.20;99.90
8862;DHT22;4799;50.996;4.754;2022-12-05T09:06:20;4.30;99.90
8862;DHT22;4799;50.996;4.754;2022-12-05T09:08:46;4.30;99.90
8862;DHT22;4799;50.996;4.754;2022-12-05T09:11:18;4.30;99.90
8862;DHT22;4799;50.996;4.754;2022-12-05T09:13:45;4.30;99.90
8862;DHT22;4799;50.996;4.754;2022-12-05T09:16:15;4.30;99.90
8862;DHT22;4799;50.996;4.754;2022-12-05T09:18:41;4.30;99.90
8862;DHT22;4799;50.996;4.754;2022-12-05T09:21:12;4.40;99.90
8862;DHT22;4799;50.996;4.754;2022-12-05T09:23:38;4.30;99.90
8862;DHT22;4799;50.996;4.754;2022-12-05T09:26:06;4.40;99.90
8862;DHT22;4799;50.996;4.754;2022-12-05T09:28:33;4.30;99.90
8862;DHT22;4799;50.996;4.754;2022-12-05T09:31:02;4.30;99.90
8862;DHT22;4799;50.996;4.754;2022-12-05T09:33:30;4.40;99.90
8862;DHT22;4799;50.996;4.754;2022-12-05T09:35:57;4.40;99.90
8862;DHT22;4799;50.996;4.754;2022-12-05T09:38:23;4.40;99.90
8862;DHT22;4799;50.996;4.754;2022-12-05T09:46:55;4.60;99.90
8862;DHT22;4799;50.996;4.754;2022-12-05T09:49:24;4.60;99.90
8862;DHT22;4799;50.996;4.754;2022-12-05T09:51:52;4.60;99.90
8862;DHT22;4799;50.996;4.754;2022-12-05T09:54:19;4.70;99.90
8862;DHT22;4799;50.996;4.754;2022-12-05T09:56:48;4.70;99.90
8862;DHT22;4799;50.996;4.754;2022-12-05T09:59:15;4.70;99.90
8862;DHT22;4799;50.996;4.754;2022-12-05T10:04:54;4.70;99.90
8862;DHT22;4799;50.996;4.754;2022-12-05T10:13:16;4.70;99.90
8862;DHT22;4799;50.996;4.754;2022-12-05T10:15:47;4.70;99.90
8862;DHT22;4799;50.996;4.754;2022-12-05T10:18:38;4.70;99.90
8862;DHT22;4799;50.996;4.754;2022-12-05T10:26:08;4.70;99.90
8862;DHT22;4799;50.996;4.754;2022-12-05T10:28:40;4.70;99.90
8862;DHT22;4799;50.996;4.754;2022-12-05T10:31:10;4.70;99.90
8862;DHT22;4799;50.996;4.754;2022-12-05T10:33:43;4.70;99.90
8862;DHT22;4799;50.996;4.754;2022-12-05T10:36:12;4.70;99.90
8862;DHT22;4799;50.996;4.754;2022-12-05T10:38:40;4.70;99.90
8862;DHT22;4799;50.996;4.754;2022-12-05T10:41:09;4.80;99.90
8862;DHT22;4799;50.996;4.754;2022-12-05T10:43:39;4.70;99.90
8862;DHT22;4799;50.996;4.754;2022-12-05T10:46:05;4.80;99.90
8862;DHT22;4799;50.996;4.754;2022-12-05T10:48:35;4.70;99.90
8862;DHT22;4799;50.996;4.754;2022-12-05T10:51:03;4.80;99.90
8862;DHT22;4799;50.996;4.754;2022-12-05T10:53:40;4.80;99.90
8862;DHT22;4799;50.996;4.754;2022-12-05T10:59:04;4.80;99.90
8862;DHT22;4799;50.996;4.754;2022-12-05T11:01:30;4.80;99.90
8862;DHT22;4799;50.996;4.754;2022-12-05T11:04:01;4.80;99.90
8862;DHT22;4799;50.996;4.754;2022-12-05T11:06:30;4.80;99.90
8862;DHT22;4799;50.996;4.754;2022-12-05T11:09:18;4.80;99.90
8862;DHT22;4799;50.996;4.754;2022-12-05T11:14:26;4.90;99.90
8862;DHT22;4799;50.996;4.754;2022-12-05T11:16:57;4.80;99.90
8862;DHT22;4799;50.996;4.754;2022-12-05T11:19:33;4.80;99.90
8862;DHT22;4799;50.996;4.754;2022-12-05T11:22:00;4.80;99.90
8862;DHT22;4799;50.996;4.754;2022-12-05T11:24:31;4.80;99.90
8862;DHT22;4799;50.996;4.754;2022-12-05T11:27:19;4.80;99.90
8862;DHT22;4799;50.996;4.754;2022-12-05T11:32:36;4.80;99.90
8862;DHT22;4799;50.996;4.754;2022-12-05T11:37:42;4.80;99.90
8862;DHT22;4799;50.996;4.754;2022-12-05T11:46:20;4.90;99.90
8862;DHT22;4799;50.996;4.754;2022-12-05T11:51:27;4.90;99.90
8862;DHT22;4799;50.996;4.754;2022-12-05T11:56:51;5.00;99.90
8862;DHT22;4799;50.996;4.754;2022-12-05T12:05:00;4.90;99.90
8862;DHT22;4799;50.996;4.754;2022-12-05T12:21:18;4.90;99.90
8862;DHT22;4799;50.996;4.754;2022-12-05T12:29:15;4.80;99.90
8862;DHT22;4799;50.996;4.754;2022-12-05T12:34:37;4.80;99.90
8862;DHT22;4799;50.996;4.754;2022-12-05T12:37:17;4.80;99.90
8862;DHT22;4799;50.996;4.754;2022-12-05T12:46:02;4.70;99.90
8862;DHT22;4799;50.996;4.754;2022-12-05T12:51:29;4.70;99.90
8862;DHT22;4799;50.996;4.754;2022-12-05T12:54:05;4.70;99.90
8862;DHT22;4799;50.996;4.754;2022-12-05T13:08:10;4.90;99.90
8862;DHT22;4799;50.996;4.754;2022-12-05T13:10:42;5.00;99.90
8862;DHT22;4799;50.996;4.754;2022-12-05T13:13:13;5.00;99.90
8862;DHT22;4799;50.996;4.754;2022-12-05T13:15:44;5.00;99.90
8862;DHT22;4799;50.996;4.754;2022-12-05T13:18:23;5.00;99.90
8862;DHT22;4799;50.996;4.754;2022-12-05T13:20:55;5.00;99.90
8862;DHT22;4799;50.996;4.754;2022-12-05T13:23:27;5.00;99.90
8862;DHT22;4799;50.996;4.754;2022-12-05T13:25:56;5.00;99.90
8862;DHT22;4799;50.996;4.754;2022-12-05T13:28:39;5.00;99.90
8862;DHT22;4799;50.996;4.754;2022-12-05T13:31:11;5.00;99.90
8862;DHT22;4799;50.996;4.754;2022-12-05T13:33:50;5.00;99.90
8862;DHT22;4799;50.996;4.754;2022-12-05T13:36:20;5.00;99.90
8862;DHT22;4799;50.996;4.754;2022-12-05T13:39:14;5.00;99.90
8862;DHT22;4799;50.996;4.754;2022-12-05T13:42:01;5.00;99.90
8862;DHT22;4799;50.996;4.754;2022-12-05T13:50:15;5.00;99.90
8862;DHT22;4799;50.996;4.754;2022-12-05T13:52:48;5.00;99.90
8862;DHT22;4799;50.996;4.754;2022-12-05T13:55:33;5.00;99.90
8862;DHT22;4799;50.996;4.754;2022-12-05T13:58:01;5.00;99.90
8862;DHT22;4799;50.996;4.754;2022-12-05T14:00:30;5.00;99.90
8862;DHT22;4799;50.996;4.754;2022-12-05T14:03:01;5.10;99.90
8862;DHT22;4799;50.996;4.754;2022-12-05T14:05:43;5.10;99.90
8862;DHT22;4799;50.996;4.754;2022-12-05T14:15:49;5.10;99.90
8862;DHT22;4799;50.996;4.754;2022-12-05T14:34:26;4.70;99.90
8862;DHT22;4799;50.996;4.754;2022-12-05T14:37:19;4.70;99.90
8862;DHT22;4799;50.996;4.754;2022-12-05T14:39:51;4.70;99.90
8862;DHT22;4799;50.996;4.754;2022-12-05T14:42:43;4.70;99.90
8862;DHT22;4799;50.996;4.754;2022-12-05T14:45:34;4.70;99.90
8862;DHT22;4799;50.996;4.754;2022-12-05T14:50:56;4.70;99.90
8862;DHT22;4799;50.996;4.754;2022-12-05T14:53:33;4.60;99.90
8862;DHT22;4799;50.996;4.754;2022-12-05T15:01:26;4.60;99.90
8862;DHT22;4799;50.996;4.754;2022-12-05T15:06:54;4.70;99.90
8862;DHT22;4799;50.996;4.754;2022-12-05T15:09:59;4.70;99.90
8862;DHT22;4799;50.996;4.754;2022-12-05T15:15:14;4.60;99.90
8862;DHT22;4799;50.996;4.754;2022-12-05T15:17:59;4.70;99.90
8862;DHT22;4799;50.996;4.754;2022-12-05T15:20:37;4.70;99.90
8862;DHT22;4799;50.996;4.754;2022-12-05T15:23:38;4.70;99.90
8862;DHT22;4799;50.996;4.754;2022-12-05T15:26:05;4.70;99.90
8862;DHT22;4799;50.996;4.754;2022-12-05T15:28:37;4.60;99.90
8862;DHT22;4799;50.996;4.754;2022-12-05T15:31:03;4.60;99.90
8862;DHT22;4799;50.996;4.754;2022-12-05T15:33:29;4.60;99.90
8862;DHT22;4799;50.996;4.754;2022-12-05T15:35:55;4.60;99.90
8862;DHT22;4799;50.996;4.754;2022-12-05T15:38:27;4.60;99.90
8862;DHT22;4799;50.996;4.754;2022-12-05T15:40:54;4.60;99.90
8862;DHT22;4799;50.996;4.754;2022-12-05T15:43:30;4.70;99.90
8862;DHT22;4799;50.996;4.754;2022-12-05T15:46:18;4.70;99.90
8862;DHT22;4799;50.996;4.754;2022-12-05T15:48:45;4.70;99.90
8862;DHT22;4799;50.996;4.754;2022-12-05T15:51:11;4.70;99.90
8862;DHT22;4799;50.996;4.754;2022-12-05T15:53:51;4.70;99.90
8862;DHT22;4799;50.996;4.754;2022-12-05T15:56:23;4.70;99.90
8862;DHT22;4799;50.996;4.754;2022-12-05T16:01:23;4.70;99.90
8862;DHT22;4799;50.996;4.754;2022-12-05T16:04:04;4.70;99.90
8862;DHT22;4799;50.996;4.754;2022-12-05T16:06:48;4.70;99.90
8862;DHT22;4799;50.996;4.754;2022-12-05T16:09:17;4.80;99.90
8862;DHT22;4799;50.996;4.754;2022-12-05T16:12:03;4.70;99.90
8862;DHT22;4799;50.996;4.754;2022-12-05T16:14:39;4.80;99.90
8862;DHT22;4799;50.996;4.754;2022-12-05T16:17:07;4.80;99.90
8862;DHT22;4799;50.996;4.754;2022-12-05T16:19:37;4.80;99.90
8862;DHT22;4799;50.996;4.754;2022-12-05T16:25:00;4.80;99.90
8862;DHT22;4799;50.996;4.754;2022-12-05T16:27:35;4.80;99.90
8862;DHT22;4799;50.996;4.754;2022-12-05T16:32:41;4.80;99.90
8862;DHT22;4799;50.996;4.754;2022-12-05T16:40:28;4.80;99.90
8862;DHT22;4799;50.996;4.754;2022-12-05T16:43:18;4.80;99.90
8862;DHT22;4799;50.996;4.754;2022-12-05T16:45:46;4.80;99.90
8862;DHT22;4799;50.996;4.754;2022-12-05T16:48:22;4.80;99.90
8862;DHT22;4799;50.996;4.754;2022-12-05T16:50:50;4.80;99.90
8862;DHT22;4799;50.996;4.754;2022-12-05T16:53:26;4.80;99.90
8862;DHT22;4799;50.996;4.754;2022-12-05T16:55:53;4.80;99.90
8862;DHT22;4799;50.996;4.754;2022-12-05T16:58:24;4.90;99.90
8862;DHT22;4799;50.996;4.754;2022-12-05T17:00:51;4.90;99.90
8862;DHT22;4799;50.996;4.754;2022-12-05T17:03:17;4.90;99.90
8862;DHT22;4799;50.996;4.754;2022-12-05T17:05:43;4.90;99.90
8862;DHT22;4799;50.996;4.754;2022-12-05T17:08:09;4.90;99.90
8862;DHT22;4799;50.996;4.754;2022-12-05T17:10:35;4.80;99.90
8862;DHT22;4799;50.996;4.754;2022-12-05T17:13:01;4.90;99.90
8862;DHT22;4799;50.996;4.754;2022-12-05T17:15:27;4.90;99.90
8862;DHT22;4799;50.996;4.754;2022-12-05T17:17:53;4.90;99.90
8862;DHT22;4799;50.996;4.754;2022-12-05T17:20:19;4.90;99.90
8862;DHT22;4799;50.996;4.754;2022-12-05T17:22:45;4.90;99.90
8862;DHT22;4799;50.996;4.754;2022-12-05T17:25:30;4.90;99.90
8862;DHT22;4799;50.996;4.754;2022-12-05T17:28:00;4.90;99.90
8862;DHT22;4799;50.996;4.754;2022-12-05T17:30:26;4.90;99.90
8862;DHT22;4799;50.996;4.754;2022-12-05T17:32:52;4.90;99.90
8862;DHT22;4799;50.996;4.754;2022-12-05T17:35:20;4.90;99.90
8862;DHT22;4799;50.996;4.754;2022-12-05T17:37:47;4.90;99.90
8862;DHT22;4799;50.996;4.754;2022-12-05T17:40:13;4.90;99.90
8862;DHT22;4799;50.996;4.754;2022-12-05T17:42:39;4.90;99.90
8862;DHT22;4799;50.996;4.754;2022-12-05T17:45:10;4.90;99.90
8862;DHT22;4799;50.996;4.754;2022-12-05T17:47:36;4.90;99.90
8862;DHT22;4799;50.996;4.754;2022-12-05T17:50:03;4.90;99.90
8862;DHT22;4799;50.996;4.754;2022-12-05T17:52:29;4.90;99.90
8862;DHT22;4799;50.996;4.754;2022-12-05T17:54:55;4.90;99.90
8862;DHT22;4799;50.996;4.754;2022-12-05T17:57:21;4.90;99.90
8862;DHT22;4799;50.996;4.754;2022-12-05T17:59:47;4.90;99.90
8862;DHT22;4799;50.996;4.754;2022-12-05T18:02:12;4.90;99.90
8862;DHT22;4799;50.996;4.754;2022-12-05T18:04:40;5.00;99.90
8862;DHT22;4799;50.996;4.754;2022-12-05T18:07:05;4.90;99.90
8862;DHT22;4799;50.996;4.754;2022-12-05T18:09:31;5.00;99.90
8862;DHT22;4799;50.996;4.754;2022-12-05T18:11:57;4.90;99.90
8862;DHT22;4799;50.996;4.754;2022-12-05T18:14:23;5.00;99.90
8862;DHT22;4799;50.996;4.754;2022-12-05T18:16:50;5.00;99.90
8862;DHT22;4799;50.996;4.754;2022-12-05T18:19:15;5.00;99.90
8862;DHT22;4799;50.996;4.754;2022-12-05T18:21:41;5.00;99.90
8862;DHT22;4799;50.996;4.754;2022-12-05T18:24:07;4.90;99.90
8862;DHT22;4799;50.996;4.754;2022-12-05T18:26:32;4.90;99.90
8862;DHT22;4799;50.996;4.754;2022-12-05T18:28:58;4.90;99.90
8862;DHT22;4799;50.996;4.754;2022-12-05T18:31:24;4.90;99.90
8862;DHT22;4799;50.996;4.754;2022-12-05T18:33:50;5.00;99.90
8862;DHT22;4799;50.996;4.754;2022-12-05T18:36:18;5.00;99.90
8862;DHT22;4799;50.996;4.754;2022-12-05T18:38:52;5.00;99.90
8862;DHT22;4799;50.996;4.754;2022-12-05T18:41:20;5.00;99.90
8862;DHT22;4799;50.996;4.754;2022-12-05T18:43:48;5.00;99.90
8862;DHT22;4799;50.996;4.754;2022-12-05T18:46:14;4.90;99.90
8862;DHT22;4799;50.996;4.754;2022-12-05T18:48:40;5.00;99.90
8862;DHT22;4799;50.996;4.754;2022-12-05T18:53:35;4.90;99.90
8862;DHT22;4799;50.996;4.754;2022-12-05T18:56:11;5.00;99.90
8862;DHT22;4799;50.996;4.754;2022-12-05T18:58:37;5.00;99.90
8862;DHT22;4799;50.996;4.754;2022-12-05T19:01:08;5.00;99.90
8862;DHT22;4799;50.996;4.754;2022-12-05T19:03:35;4.90;99.90
8862;DHT22;4799;50.996;4.754;2022-12-05T19:06:01;5.00;99.90
8862;DHT22;4799;50.996;4.754;2022-12-05T19:08:27;5.00;99.90
8862;DHT22;4799;50.996;4.754;2022-12-05T19:10:53;5.00;99.90
8862;DHT22;4799;50.996;4.754;2022-12-05T19:13:18;5.00;99.90
8862;DHT22;4799;50.996;4.754;2022-12-05T19:15:48;5.00;99.90
8862;DHT22;4799;50.996;4.754;2022-12-05T19:18:13;5.00;99.90
8862;DHT22;4799;50.996;4.754;2022-12-05T19:20:39;5.00;99.90
8862;DHT22;4799;50.996;4.754;2022-12-05T19:23:12;5.00;99.90
8862;DHT22;4799;50.996;4.754;2022-12-05T19:25:38;5.00;99.90
8862;DHT22;4799;50.996;4.754;2022-12-05T19:28:04;5.00;99.90
8862;DHT22;4799;50.996;4.754;2022-12-05T19:30:30;5.10;99.90
8862;DHT22;4799;50.996;4.754;2022-12-05T19:32:55;5.10;99.90
8862;DHT22;4799;50.996;4.754;2022-12-05T19:35:21;5.10;99.90
8862;DHT22;4799;50.996;4.754;2022-12-05T19:37:47;5.10;99.90
8862;DHT22;4799;50.996;4.754;2022-12-05T19:40:13;5.10;99.90
8862;DHT22;4799;50.996;4.754;2022-12-05T19:42:38;5.10;99.90
8862;DHT22;4799;50.996;4.754;2022-12-05T19:45:05;5.10;99.90
8862;DHT22;4799;50.996;4.754;2022-12-05T19:47:30;5.10;99.90